createdAt,value
2019-06-01T00:02:03.999Z,14.00
2019-06-01T00:04:34.678Z,14.00
2019-06-01T00:07:04.802Z,14.00
2019-06-01T00:09:35.244Z,14.00
2019-06-01T00:12:05.525Z,14.00
2019-06-01T00:14:35.739Z,13.90
2019-06-01T00:17:06.537Z,13.90
2019-06-01T00:19:36.709Z,13.90
2019-06-01T00:22:06.950Z,13.90
2019-06-01T00:24:37.138Z,13.80
2019-06-01T00:27:07.525Z,13.70
2019-06-01T00:29:38.151Z,13.70
2019-06-01T00:32:08.852Z,13.70
2019-06-01T00:34:39.413Z,13.70
2019-06-01T00:37:09.626Z,13.70
2019-06-01T00:39:40.326Z,13.60
2019-06-01T00:42:11.709Z,13.60
2019-06-01T00:44:42.159Z,13.60
2019-06-01T00:47:12.491Z,13.60
2019-06-01T00:49:43.074Z,13.60
2019-06-01T00:52:13.599Z,13.50
2019-06-01T00:54:43.791Z,13.50
2019-06-01T00:57:14.456Z,13.50
2019-06-01T00:59:45.897Z,13.50
2019-06-01T01:02:16.508Z,13.50
2019-06-01T01:04:46.682Z,13.50
2019-06-01T01:07:16.882Z,13.50
2019-06-01T01:09:47.408Z,13.50
2019-06-01T01:12:19.864Z,13.50
2019-06-01T01:14:51.296Z,13.50
2019-06-01T01:17:21.678Z,13.50
2019-06-01T01:19:51.996Z,13.50
2019-06-01T01:22:22.267Z,13.50
2019-06-01T01:24:52.576Z,13.50
2019-06-01T01:27:24.212Z,13.50
2019-06-01T01:29:55.025Z,13.50
2019-06-01T01:32:25.256Z,13.50
2019-06-01T01:34:55.809Z,13.50
2019-06-01T01:37:26.035Z,13.50
2019-06-01T01:39:56.330Z,13.60
2019-06-01T01:42:26.565Z,13.50
2019-06-01T01:44:58.646Z,13.50
2019-06-01T01:47:28.980Z,13.60
2019-06-01T01:49:59.478Z,13.50
2019-06-01T01:52:30.022Z,13.60
2019-06-01T01:55:00.240Z,13.60
2019-06-01T01:57:30.458Z,13.60
2019-06-01T02:00:01.867Z,13.60
2019-06-01T02:02:34.076Z,13.60
2019-06-01T02:05:04.439Z,13.60
2019-06-01T02:07:34.766Z,13.60
2019-06-01T02:10:05.943Z,13.60
2019-06-01T02:12:36.111Z,13.70
2019-06-01T02:15:07.311Z,13.70
2019-06-01T02:17:37.605Z,13.70
2019-06-01T02:20:08.018Z,13.70
2019-06-01T02:22:38.248Z,13.70
2019-06-01T02:25:08.741Z,13.70
2019-06-01T02:27:38.998Z,13.70
2019-06-01T02:30:09.377Z,13.70
2019-06-01T02:32:39.658Z,13.70
2019-06-01T02:35:10.218Z,13.80
2019-06-01T02:37:40.441Z,13.80
2019-06-01T02:40:11.029Z,13.70
2019-06-01T02:42:41.714Z,13.80
2019-06-01T02:45:14.847Z,13.70
2019-06-01T02:47:45.160Z,13.70
2019-06-01T02:50:16.111Z,13.70
2019-06-01T02:52:46.312Z,13.70
2019-06-01T02:55:19.085Z,13.70
2019-06-01T02:57:49.256Z,13.70
2019-06-01T03:00:29.503Z,13.70
2019-06-01T03:03:00.724Z,13.70
2019-06-01T03:05:31.144Z,13.70
2019-06-01T03:08:01.929Z,13.70
2019-06-01T03:10:32.531Z,13.60
2019-06-01T03:13:04.192Z,13.70
2019-06-01T03:15:36.200Z,13.60
2019-06-01T03:18:07.757Z,13.60
2019-06-01T03:20:39.900Z,13.60
2019-06-01T03:23:12.800Z,13.60
2019-06-01T03:25:44.509Z,13.60
2019-06-01T03:28:17.729Z,13.60
2019-06-01T03:30:48.009Z,13.50
2019-06-01T03:33:18.217Z,13.50
2019-06-01T03:35:48.873Z,13.50
2019-06-01T03:38:19.155Z,13.50
2019-06-01T03:40:49.334Z,13.50
2019-06-01T03:43:21.330Z,13.50
2019-06-01T03:45:51.889Z,13.50
2019-06-01T03:48:22.146Z,13.50
2019-06-01T03:50:52.369Z,13.50
2019-06-01T03:53:22.593Z,13.50
2019-06-01T03:55:52.730Z,13.50
2019-06-01T03:58:23.051Z,13.60
2019-06-01T04:00:53.237Z,13.60
2019-06-01T04:03:23.500Z,13.60
2019-06-01T04:05:54.020Z,13.60
2019-06-01T04:08:24.572Z,13.70
2019-06-01T04:10:54.812Z,13.60
2019-06-01T04:13:25.181Z,13.70
2019-06-01T04:15:55.416Z,13.70
2019-06-01T04:18:25.667Z,13.80
2019-06-01T04:20:55.912Z,13.80
2019-06-01T04:23:26.060Z,13.80
2019-06-01T04:25:56.270Z,13.90
2019-06-01T04:28:26.856Z,13.90
2019-06-01T04:30:57.050Z,13.90
2019-06-01T04:33:27.282Z,14.00
2019-06-01T04:35:57.430Z,14.00
2019-06-01T04:38:27.666Z,14.00
2019-06-01T04:40:57.945Z,14.10
2019-06-01T04:43:31.002Z,14.10
2019-06-01T04:46:01.172Z,14.20
2019-06-01T04:48:31.696Z,14.30
2019-06-01T04:51:03.070Z,14.30
2019-06-01T04:53:33.665Z,14.40
2019-06-01T04:56:04.782Z,14.40
2019-06-01T04:58:35.179Z,14.50
2019-06-01T05:01:05.476Z,14.60
2019-06-01T05:03:35.688Z,14.70
2019-06-01T05:06:07.072Z,14.70
2019-06-01T05:08:37.498Z,14.80
2019-06-01T05:11:08.978Z,14.90
2019-06-01T05:13:40.480Z,14.90
2019-06-01T05:16:12.950Z,15.00
2019-06-01T05:18:42.934Z,15.00
2019-06-01T05:21:15.143Z,15.10
2019-06-01T05:23:45.971Z,15.20
2019-06-01T05:26:17.159Z,15.20
2019-06-01T05:28:47.532Z,15.30
2019-06-01T05:31:24.306Z,15.40
2019-06-01T05:33:50.051Z,15.50
2019-06-01T05:36:20.324Z,15.50
2019-06-01T05:38:50.538Z,15.60
2019-06-01T05:41:21.452Z,15.70
2019-06-01T05:43:51.636Z,15.80
2019-06-01T05:46:23.362Z,16.00
2019-06-01T05:48:53.594Z,16.10
2019-06-01T05:51:23.863Z,16.30
2019-06-01T05:53:54.475Z,16.30
2019-06-01T05:56:24.994Z,16.20
2019-06-01T05:58:55.288Z,16.30
2019-06-01T06:01:25.467Z,16.50
2019-06-01T06:03:55.785Z,16.60
2019-06-01T06:06:26.436Z,16.70
2019-06-01T06:08:57.145Z,16.80
2019-06-01T06:11:27.339Z,16.80
2019-06-01T06:13:57.554Z,16.90
2019-06-01T06:16:27.734Z,16.90
2019-06-01T06:18:58.922Z,17.10
2019-06-01T06:21:29.121Z,17.20
2019-06-01T06:23:59.345Z,17.20
2019-06-01T06:26:30.076Z,17.40
2019-06-01T06:29:01.137Z,17.40
2019-06-01T06:31:31.725Z,17.50
2019-06-01T06:34:02.009Z,17.60
2019-06-01T06:36:32.184Z,17.70
2019-06-01T06:39:04.717Z,17.80
2019-06-01T06:41:34.474Z,17.90
2019-06-01T06:44:05.359Z,18.00
2019-06-01T06:46:35.615Z,18.10
2019-06-01T06:49:09.275Z,18.20
2019-06-01T06:51:37.947Z,18.20
2019-06-01T06:54:08.159Z,18.40
2019-06-01T06:56:38.415Z,18.50
2019-06-01T06:59:11.646Z,18.50
2019-06-01T07:01:40.957Z,18.60
2019-06-01T07:04:13.000Z,18.50
2019-06-01T07:06:43.552Z,18.40
2019-06-01T07:09:14.052Z,18.30
2019-06-01T07:11:44.730Z,18.40
2019-06-01T07:14:15.241Z,18.50
2019-06-01T07:16:45.851Z,18.60
2019-06-01T07:19:16.069Z,18.80
2019-06-01T07:21:46.380Z,19.00
2019-06-01T07:24:16.678Z,18.90
2019-06-01T07:26:46.921Z,18.80
2019-06-01T07:29:17.938Z,18.90
2019-06-01T07:31:48.537Z,19.00
2019-06-01T07:34:30.672Z,19.10
2019-06-01T07:36:50.797Z,19.30
2019-06-01T07:39:22.633Z,19.40
2019-06-01T07:41:52.992Z,19.60
2019-06-01T07:44:23.278Z,19.60
2019-06-01T07:46:53.487Z,19.50
2019-06-01T07:49:24.974Z,19.50
2019-06-01T07:51:55.518Z,19.60
2019-06-01T07:54:26.381Z,19.70
2019-06-01T07:56:56.724Z,19.80
2019-06-01T07:59:28.319Z,19.90
2019-06-01T08:01:58.749Z,20.00
2019-06-01T08:04:31.749Z,20.20
2019-06-01T08:07:02.779Z,20.00
2019-06-01T08:09:33.337Z,20.10
2019-06-01T08:12:03.697Z,20.30
2019-06-01T08:14:34.397Z,20.40
2019-06-01T08:17:04.821Z,20.30
2019-06-01T08:19:35.160Z,20.40
2019-06-01T08:22:06.001Z,20.60
2019-06-01T08:24:37.248Z,20.70
2019-06-01T08:27:07.812Z,20.70
2019-06-01T08:29:39.621Z,20.70
2019-06-01T08:32:10.534Z,20.70
2019-06-01T08:34:41.455Z,20.90
2019-06-01T08:37:11.691Z,20.90
2019-06-01T08:39:41.983Z,21.20
2019-06-01T08:42:12.493Z,21.10
2019-06-01T08:44:43.162Z,21.00
2019-06-01T08:47:13.868Z,21.10
2019-06-01T08:49:48.561Z,21.30
2019-06-01T08:52:18.918Z,21.50
2019-06-01T08:54:49.177Z,21.60
2019-06-01T08:57:19.470Z,21.80
2019-06-01T08:59:50.067Z,22.00
2019-06-01T09:02:20.328Z,22.10
2019-06-01T09:04:50.638Z,22.20
2019-06-01T09:07:20.823Z,22.00
2019-06-01T09:09:52.748Z,22.00
2019-06-01T09:12:23.302Z,22.20
2019-06-01T09:14:53.531Z,22.40
2019-06-01T09:17:25.270Z,22.50
2019-06-01T09:19:55.755Z,22.60
2019-06-01T09:22:27.530Z,22.60
2019-06-01T09:24:57.889Z,22.70
2019-06-01T09:27:28.103Z,22.60
2019-06-01T09:29:58.407Z,22.70
2019-06-01T09:32:29.952Z,22.70
2019-06-01T09:35:00.751Z,22.80
2019-06-01T09:37:32.506Z,22.90
2019-06-01T09:40:02.894Z,23.00
2019-06-01T09:42:33.427Z,23.30
2019-06-01T09:45:05.530Z,23.40
2019-06-01T09:47:35.793Z,23.50
2019-06-01T09:50:06.971Z,23.60
2019-06-01T09:52:37.722Z,23.70
2019-06-01T09:55:08.951Z,23.70
2019-06-01T09:57:40.239Z,23.70
2019-06-01T10:00:12.022Z,23.60
2019-06-01T10:02:42.271Z,23.90
2019-06-01T10:05:13.172Z,24.30
2019-06-01T10:07:43.487Z,24.50
2019-06-01T10:10:13.801Z,24.30
2019-06-01T10:12:44.083Z,24.30
2019-06-01T10:15:14.682Z,24.10
2019-06-01T10:17:45.169Z,24.10
2019-06-01T10:20:16.129Z,24.10
2019-06-01T10:22:46.438Z,24.30
2019-06-01T10:25:18.316Z,24.40
2019-06-01T10:27:48.593Z,24.50
2019-06-01T10:30:18.893Z,24.80
2019-06-01T10:32:49.480Z,24.70
2019-06-01T10:35:19.913Z,24.70
2019-06-01T10:37:50.643Z,24.80
2019-06-01T10:40:20.912Z,24.90
2019-06-01T10:42:51.198Z,25.00
2019-06-01T10:45:21.381Z,25.20
2019-06-01T10:47:51.633Z,25.30
2019-06-01T10:50:21.871Z,25.50
2019-06-01T10:52:52.097Z,25.70
2019-06-01T10:55:22.476Z,25.80
2019-06-01T10:57:52.684Z,25.70
2019-06-01T11:00:37.598Z,25.80
2019-06-01T11:02:55.929Z,26.10
2019-06-01T11:05:26.160Z,26.10
2019-06-01T11:07:56.427Z,26.30
2019-06-01T11:10:26.663Z,26.40
2019-06-01T11:12:56.853Z,26.60
2019-06-01T11:15:27.448Z,26.50
2019-06-01T11:17:58.723Z,26.60
2019-06-01T11:20:28.949Z,26.80
2019-06-01T11:22:59.213Z,26.80
2019-06-01T11:25:29.425Z,26.90
2019-06-01T11:27:59.701Z,26.80
2019-06-01T11:30:29.920Z,26.50
2019-06-01T11:33:01.244Z,26.00
2019-06-01T11:35:31.538Z,26.20
2019-06-01T11:38:02.179Z,26.40
2019-06-01T11:40:32.506Z,26.60
2019-06-01T11:43:03.046Z,26.70
2019-06-01T11:45:34.784Z,26.90
2019-06-01T11:48:05.737Z,27.20
2019-06-01T11:50:36.963Z,27.30
2019-06-01T11:53:07.748Z,27.40
2019-06-01T11:55:39.119Z,27.30
2019-06-01T11:58:09.898Z,27.70
2019-06-01T12:00:41.472Z,27.80
2019-06-01T12:03:11.826Z,27.60
2019-06-01T12:05:42.214Z,27.40
2019-06-01T12:08:12.607Z,27.30
2019-06-01T12:10:43.288Z,27.50
2019-06-01T12:13:13.496Z,27.50
2019-06-01T12:15:44.414Z,27.50
2019-06-01T12:18:14.795Z,27.20
2019-06-01T12:20:45.493Z,27.20
2019-06-01T12:23:16.462Z,27.40
2019-06-01T12:25:46.766Z,27.40
2019-06-01T12:28:17.061Z,27.40
2019-06-01T12:30:47.910Z,27.30
2019-06-01T12:33:18.273Z,27.30
2019-06-01T12:35:48.798Z,27.50
2019-06-01T12:38:18.999Z,27.70
2019-06-01T12:40:49.249Z,27.80
2019-06-01T12:43:19.777Z,27.90
2019-06-01T12:46:05.464Z,27.60
2019-06-01T12:48:23.121Z,27.40
2019-06-01T12:50:53.336Z,27.30
2019-06-01T12:53:23.908Z,27.90
2019-06-01T12:55:54.126Z,28.40
2019-06-01T12:58:24.669Z,28.50
2019-06-01T13:00:55.231Z,28.10
2019-06-01T13:03:25.522Z,27.70
2019-06-01T13:05:56.494Z,27.70
2019-06-01T13:08:26.692Z,28.30
2019-06-01T13:10:56.892Z,28.50
2019-06-01T13:13:27.096Z,28.10
2019-06-01T13:15:57.300Z,27.80
2019-06-01T13:18:27.903Z,28.10
2019-06-01T13:20:58.239Z,28.40
2019-06-01T13:23:28.770Z,28.50
2019-06-01T13:26:00.039Z,28.30
2019-06-01T13:28:38.085Z,28.70
2019-06-01T13:31:03.600Z,28.70
2019-06-01T13:33:34.174Z,29.00
2019-06-01T13:36:04.561Z,29.20
2019-06-01T13:38:34.847Z,29.70
2019-06-01T13:41:05.372Z,30.00
2019-06-01T13:43:35.590Z,30.40
2019-06-01T13:46:06.770Z,30.90
2019-06-01T13:48:37.092Z,31.10
2019-06-01T13:51:07.306Z,31.30
2019-06-01T13:53:37.495Z,31.60
2019-06-01T13:56:07.768Z,31.50
2019-06-01T13:58:37.962Z,31.40
2019-06-01T14:01:08.512Z,31.50
2019-06-01T14:03:39.736Z,32.40
2019-06-01T14:06:09.984Z,32.80
2019-06-01T14:08:40.192Z,32.80
2019-06-01T14:11:10.827Z,33.00
2019-06-01T14:13:41.021Z,33.00
2019-06-01T14:16:11.245Z,32.80
2019-06-01T14:18:41.806Z,33.40
2019-06-01T14:21:12.045Z,33.70
2019-06-01T14:23:42.284Z,32.90
2019-06-01T14:26:12.445Z,32.50
2019-06-01T14:28:42.751Z,32.60
2019-06-01T14:31:13.014Z,32.80
2019-06-01T14:33:43.317Z,33.10
2019-06-01T14:36:13.778Z,33.20
2019-06-01T14:38:47.651Z,34.30
2019-06-01T14:41:15.832Z,34.70
2019-06-01T14:43:46.927Z,34.60
2019-06-01T14:46:17.287Z,33.20
2019-06-01T14:48:47.540Z,32.40
2019-06-01T14:51:17.796Z,31.50
2019-06-01T14:53:47.959Z,30.80
2019-06-01T14:56:18.284Z,30.50
2019-06-01T14:58:49.893Z,31.50
2019-06-01T15:01:31.808Z,33.00
2019-06-01T15:03:52.461Z,34.10
2019-06-01T15:06:22.714Z,34.80
2019-06-01T15:09:13.117Z,35.40
2019-06-01T15:11:24.927Z,35.10
2019-06-01T15:13:56.432Z,35.00
2019-06-01T15:16:27.241Z,35.60
2019-06-01T15:18:57.714Z,36.40
2019-06-01T15:21:28.023Z,37.10
2019-06-01T15:23:58.777Z,37.00
2019-06-01T15:26:29.559Z,35.60
2019-06-01T15:29:00.247Z,34.60
2019-06-01T15:31:32.091Z,34.90
2019-06-01T15:34:02.444Z,35.10
2019-06-01T15:36:32.669Z,36.10
2019-06-01T15:39:02.986Z,37.00
2019-06-01T15:41:33.835Z,37.90
2019-06-01T15:44:04.067Z,38.40
2019-06-01T15:46:34.784Z,37.90
2019-06-01T15:49:05.416Z,37.70
2019-06-01T15:51:35.651Z,38.60
2019-06-01T15:54:05.875Z,38.90
2019-06-01T15:56:36.119Z,38.40
2019-06-01T15:59:06.712Z,37.50
2019-06-01T16:01:36.993Z,37.50
2019-06-01T16:04:07.569Z,38.10
2019-06-01T16:06:37.779Z,38.40
2019-06-01T16:09:08.317Z,38.20
2019-06-01T16:11:38.664Z,38.30
2019-06-01T16:14:10.223Z,37.40
2019-06-01T16:16:40.413Z,37.50
2019-06-01T16:19:10.648Z,37.80
2019-06-01T16:21:42.714Z,38.00
2019-06-01T16:24:12.910Z,38.90
2019-06-01T16:26:43.084Z,38.80
2019-06-01T16:29:13.598Z,39.10
2019-06-01T16:31:43.915Z,39.00
2019-06-01T16:34:14.433Z,38.70
2019-06-01T16:36:45.110Z,38.40
2019-06-01T16:39:15.286Z,38.10
2019-06-01T16:41:45.845Z,37.80
2019-06-01T16:44:19.582Z,37.20
2019-06-01T16:46:48.038Z,36.30
2019-06-01T16:49:18.231Z,36.10
2019-06-01T16:51:53.226Z,36.00
2019-06-01T16:54:23.856Z,35.50
2019-06-01T16:56:54.320Z,35.30
2019-06-01T16:59:24.588Z,35.80
2019-06-01T17:01:54.765Z,35.60
2019-06-01T17:04:25.011Z,34.90
2019-06-01T17:06:56.490Z,34.40
2019-06-01T17:09:26.882Z,34.40
2019-06-01T17:11:57.177Z,34.10
2019-06-01T17:14:27.363Z,33.70
2019-06-01T17:16:58.872Z,33.50
2019-06-01T17:19:29.615Z,33.00
2019-06-01T17:21:59.923Z,33.00
2019-06-01T17:24:30.105Z,33.10
2019-06-01T17:27:00.363Z,33.10
2019-06-01T17:29:30.616Z,33.00
2019-06-01T17:32:19.057Z,33.10
2019-06-01T17:34:32.826Z,33.30
2019-06-01T17:37:04.553Z,33.50
2019-06-01T17:39:35.016Z,33.50
2019-06-01T17:42:06.435Z,33.60
2019-06-01T17:44:36.690Z,33.80
2019-06-01T17:47:08.031Z,34.00
2019-06-01T17:49:38.448Z,33.90
2019-06-01T17:52:09.737Z,34.40
2019-06-01T17:54:41.980Z,34.60
2019-06-01T17:57:12.214Z,33.90
2019-06-01T17:59:42.438Z,33.00
2019-06-01T18:02:12.749Z,32.20
2019-06-01T18:04:43.089Z,31.90
2019-06-01T18:07:13.392Z,31.20
2019-06-01T18:09:44.389Z,30.60
2019-06-01T18:12:15.500Z,30.10
2019-06-01T18:14:46.349Z,29.80
2019-06-01T18:17:16.609Z,29.60
2019-06-01T18:19:46.788Z,29.30
2019-06-01T18:22:17.078Z,29.00
2019-06-01T18:24:47.762Z,28.80
2019-06-01T18:27:17.990Z,28.60
2019-06-01T18:29:49.639Z,28.30
2019-06-01T18:32:20.067Z,28.20
2019-06-01T18:34:50.213Z,27.90
2019-06-01T18:37:20.385Z,27.70
2019-06-01T18:39:50.660Z,27.50
2019-06-01T18:42:24.371Z,27.20
2019-06-01T18:44:54.701Z,27.00
2019-06-01T18:47:32.315Z,26.70
2019-06-01T18:49:57.844Z,26.30
2019-06-01T18:52:28.104Z,26.00
2019-06-01T18:54:58.749Z,25.70
2019-06-01T18:57:29.769Z,25.50
2019-06-01T19:00:00.030Z,25.20
2019-06-01T19:02:30.258Z,25.00
2019-06-01T19:05:00.474Z,24.90
2019-06-01T19:07:30.735Z,24.90
2019-06-01T19:10:01.293Z,24.90
2019-06-01T19:12:31.589Z,24.90
2019-06-01T19:15:01.775Z,24.80
2019-06-01T19:17:32.383Z,24.60
2019-06-01T19:20:02.651Z,24.50
2019-06-01T19:22:32.923Z,24.50
2019-06-01T19:25:03.071Z,24.40
2019-06-01T19:27:33.606Z,24.30
2019-06-01T19:30:04.621Z,24.20
2019-06-01T19:32:34.937Z,24.20
2019-06-01T19:35:07.524Z,24.10
2019-06-01T19:37:39.020Z,24.10
2019-06-01T19:40:09.457Z,23.90
2019-06-01T19:42:39.842Z,23.70
2019-06-01T19:45:22.591Z,23.70
2019-06-01T19:47:42.276Z,23.60
2019-06-01T19:50:14.221Z,23.50
2019-06-01T19:52:44.580Z,23.50
2019-06-01T19:55:14.988Z,23.40
2019-06-01T19:57:45.310Z,23.40
2019-06-01T20:00:16.363Z,23.30
2019-06-01T20:02:46.736Z,23.20
2019-06-01T20:05:17.264Z,23.10
2019-06-01T20:07:47.559Z,23.00
2019-06-01T20:10:18.524Z,22.90
2019-06-01T20:12:49.310Z,22.80
2019-06-01T20:15:19.653Z,22.80
2019-06-01T20:17:50.051Z,22.70
2019-06-01T20:20:20.798Z,22.60
2019-06-01T20:22:51.122Z,22.50
2019-06-01T20:25:21.819Z,22.40
2019-06-01T20:27:53.292Z,22.40
2019-06-01T20:30:24.013Z,22.30
2019-06-01T20:32:54.372Z,22.30
2019-06-01T20:35:24.798Z,22.30
2019-06-01T20:37:55.093Z,22.20
2019-06-01T20:40:25.229Z,22.20
2019-06-01T20:42:55.597Z,22.10
2019-06-01T20:45:26.531Z,22.10
2019-06-01T20:47:56.838Z,22.00
2019-06-01T20:50:27.338Z,21.90
2019-06-01T20:52:57.977Z,21.80
2019-06-01T20:55:28.165Z,21.80
2019-06-01T20:57:58.321Z,21.80
2019-06-01T21:00:31.705Z,21.80
2019-06-01T21:03:00.437Z,21.80
2019-06-01T21:05:30.601Z,21.70
2019-06-01T21:08:00.826Z,21.70
2019-06-01T21:10:31.540Z,21.70
2019-06-01T21:13:01.789Z,21.70
2019-06-01T21:15:31.911Z,21.60
2019-06-01T21:18:02.273Z,21.60
2019-06-01T21:20:32.871Z,21.60
2019-06-01T21:23:03.160Z,21.50
2019-06-01T21:25:33.421Z,21.60
2019-06-01T21:28:03.642Z,21.60
2019-06-01T21:30:33.914Z,21.60
2019-06-01T21:33:04.158Z,21.60
2019-06-01T21:35:34.410Z,21.70
2019-06-01T21:38:04.630Z,21.70
2019-06-01T21:40:34.862Z,21.70
2019-06-01T21:43:23.075Z,21.60
2019-06-01T21:45:37.366Z,21.60
2019-06-01T21:48:07.577Z,21.50
2019-06-01T21:50:38.122Z,21.50
2019-06-01T21:53:08.374Z,21.40
2019-06-01T21:55:38.564Z,21.30
2019-06-01T21:58:08.800Z,21.30
2019-06-01T22:00:40.300Z,21.30
2019-06-01T22:03:10.976Z,21.30
2019-06-01T22:05:41.333Z,21.30
2019-06-01T22:08:11.708Z,21.20
2019-06-01T22:10:42.380Z,21.20
2019-06-01T22:13:18.768Z,21.20
2019-06-01T22:15:44.857Z,21.20
2019-06-01T22:18:15.072Z,21.10
2019-06-01T22:20:45.336Z,21.20
2019-06-01T22:23:15.916Z,21.10
2019-06-01T22:25:46.113Z,21.00
2019-06-01T22:28:16.326Z,21.00
2019-06-01T22:30:47.576Z,21.00
2019-06-01T22:33:20.120Z,20.90
2019-06-01T22:35:49.661Z,20.70
2019-06-01T22:38:19.849Z,20.70
2019-06-01T22:40:50.086Z,20.70
2019-06-01T22:43:36.815Z,20.70
2019-06-01T22:45:52.248Z,20.70
2019-06-01T22:48:22.802Z,20.70
2019-06-01T22:50:53.155Z,20.70
2019-06-01T22:53:24.105Z,20.70
2019-06-01T22:55:55.271Z,20.60
2019-06-01T22:58:27.390Z,20.60
2019-06-01T23:00:57.779Z,20.50
2019-06-01T23:03:28.171Z,20.50
2019-06-01T23:05:58.425Z,20.50
2019-06-01T23:08:29.481Z,20.40
2019-06-01T23:11:00.833Z,20.40
2019-06-01T23:13:32.140Z,20.20
2019-06-01T23:16:02.597Z,20.20
2019-06-01T23:18:33.400Z,20.20
2019-06-01T23:21:03.581Z,20.30
2019-06-01T23:23:33.852Z,20.30
2019-06-01T23:26:04.021Z,20.40
2019-06-01T23:28:38.439Z,20.30
2019-06-01T23:31:07.810Z,20.40
2019-06-01T23:33:38.088Z,20.30
2019-06-01T23:36:08.169Z,20.30
2019-06-01T23:38:38.373Z,20.20
2019-06-01T23:41:08.531Z,20.20
2019-06-01T23:43:38.760Z,20.10
2019-06-01T23:46:08.962Z,20.10
2019-06-01T23:48:39.464Z,20.00
2019-06-01T23:51:10.009Z,20.00
2019-06-01T23:53:40.289Z,19.90
2019-06-01T23:56:10.479Z,19.80
2019-06-01T23:58:40.953Z,19.60
